sensor_id;sensor_type;location;lat;lon;timestamp;temperature;humidity
13251;DHT22;6692;50.710;7.180;2022-08-01T00:00:10;23.20;99.90
13251;DHT22;6692;50.710;7.180;2022-08-01T00:04:26;23.20;99.90
13251;DHT22;6692;50.710;7.180;2022-08-01T00:06:26;23.20;99.90
13251;DHT22;6692;50.710;7.180;2022-08-01T00:08:28;23.20;99.90
13251;DHT22;6692;50.710;7.180;2022-08-01T00:10:28;23.20;99.90
13251;DHT22;6692;50.710;7.180;2022-08-01T00:12:30;23.10;99.90
13251;DHT22;6692;50.710;7.180;2022-08-01T00:14:31;23.10;99.90
13251;DHT22;6692;50.710;7.180;2022-08-01T00:16:32;23.10;99.90
13251;DHT22;6692;50.710;7.180;2022-08-01T00:18:33;23.10;99.90
13251;DHT22;6692;50.710;7.180;2022-08-01T00:20:34;23.10;99.90
13251;DHT22;6692;50.710;7.180;2022-08-01T00:22:34;23.10;99.90
13251;DHT22;6692;50.710;7.180;2022-08-01T00:24:35;23.10;99.90
13251;DHT22;6692;50.710;7.180;2022-08-01T00:26:36;23.10;99.90
13251;DHT22;6692;50.710;7.180;2022-08-01T00:28:36;23.10;99.90
13251;DHT22;6692;50.710;7.180;2022-08-01T00:30:37;23.10;99.90
13251;DHT22;6692;50.710;7.180;2022-08-01T00:32:38;23.10;99.90
13251;DHT22;6692;50.710;7.180;2022-08-01T00:34:39;23.10;99.90
13251;DHT22;6692;50.710;7.180;2022-08-01T00:36:39;23.00;99.90
13251;DHT22;6692;50.710;7.180;2022-08-01T00:38:40;23.10;99.90
13251;DHT22;6692;50.710;7.180;2022-08-01T00:40:41;23.00;99.90
13251;DHT22;6692;50.710;7.180;2022-08-01T00:42:41;23.00;99.90
13251;DHT22;6692;50.710;7.180;2022-08-01T00:44:42;23.00;99.90
13251;DHT22;6692;50.710;7.180;2022-08-01T00:46:43;23.00;99.90
13251;DHT22;6692;50.710;7.180;2022-08-01T00:48:43;23.00;99.90
13251;DHT22;6692;50.710;7.180;2022-08-01T00:50:44;23.00;99.90
13251;DHT22;6692;50.710;7.180;2022-08-01T00:52:45;23.00;99.90
13251;DHT22;6692;50.710;7.180;2022-08-01T00:54:45;23.00;99.90
13251;DHT22;6692;50.710;7.180;2022-08-01T00:56:47;23.00;99.90
13251;DHT22;6692;50.710;7.180;2022-08-01T00:58:47;23.00;99.90
13251;DHT22;6692;50.710;7.180;2022-08-01T01:00:48;23.00;99.90
13251;DHT22;6692;50.710;7.180;2022-08-01T01:02:48;22.90;99.90
13251;DHT22;6692;50.710;7.180;2022-08-01T01:04:49;22.90;99.90
13251;DHT22;6692;50.710;7.180;2022-08-01T01:07:13;22.90;99.90
13251;DHT22;6692;50.710;7.180;2022-08-01T01:09:29;22.90;99.90
13251;DHT22;6692;50.710;7.180;2022-08-01T01:11:29;22.90;99.90
13251;DHT22;6692;50.710;7.180;2022-08-01T01:13:46;22.80;99.90
13251;DHT22;6692;50.710;7.180;2022-08-01T01:15:50;22.80;99.90
13251;DHT22;6692;50.710;7.180;2022-08-01T01:17:51;22.80;99.90
13251;DHT22;6692;50.710;7.180;2022-08-01T01:19:50;22.70;99.90
13251;DHT22;6692;50.710;7.180;2022-08-01T01:22:00;22.70;99.90
13251;DHT22;6692;50.710;7.180;2022-08-01T01:24:07;22.70;99.90
13251;DHT22;6692;50.710;7.180;2022-08-01T01:26:09;22.60;99.90
13251;DHT22;6692;50.710;7.180;2022-08-01T01:28:14;22.70;99.90
13251;DHT22;6692;50.710;7.180;2022-08-01T01:30:10;22.70;99.90
13251;DHT22;6692;50.710;7.180;2022-08-01T01:32:14;22.60;99.90
13251;DHT22;6692;50.710;7.180;2022-08-01T01:34:14;22.60;99.90
13251;DHT22;6692;50.710;7.180;2022-08-01T01:36:14;22.60;99.90
13251;DHT22;6692;50.710;7.180;2022-08-01T01:38:17;22.60;99.90
13251;DHT22;6692;50.710;7.180;2022-08-01T01:40:15;22.60;99.90
13251;DHT22;6692;50.710;7.180;2022-08-01T01:42:16;22.60;99.90
13251;DHT22;6692;50.710;7.180;2022-08-01T01:44:16;22.50;99.90
13251;DHT22;6692;50.710;7.180;2022-08-01T01:46:17;22.40;99.90
13251;DHT22;6692;50.710;7.180;2022-08-01T01:48:18;22.40;99.90
13251;DHT22;6692;50.710;7.180;2022-08-01T01:50:20;22.40;99.90
13251;DHT22;6692;50.710;7.180;2022-08-01T01:52:20;22.40;99.90
13251;DHT22;6692;50.710;7.180;2022-08-01T01:54:21;22.40;99.90
13251;DHT22;6692;50.710;7.180;2022-08-01T01:56:21;22.40;99.90
13251;DHT22;6692;50.710;7.180;2022-08-01T01:58:22;22.40;99.90
13251;DHT22;6692;50.710;7.180;2022-08-01T02:00:22;22.30;99.90
13251;DHT22;6692;50.710;7.180;2022-08-01T02:02:23;22.30;99.90
13251;DHT22;6692;50.710;7.180;2022-08-01T02:04:24;22.30;99.90
13251;DHT22;6692;50.710;7.180;2022-08-01T02:06:25;22.30;99.90
13251;DHT22;6692;50.710;7.180;2022-08-01T02:08:25;22.30;99.90
13251;DHT22;6692;50.710;7.180;2022-08-01T02:10:26;22.20;99.90
13251;DHT22;6692;50.710;7.180;2022-08-01T02:12:27;22.20;99.90
13251;DHT22;6692;50.710;7.180;2022-08-01T02:14:27;22.20;99.90
13251;DHT22;6692;50.710;7.180;2022-08-01T02:16:31;22.20;99.90
13251;DHT22;6692;50.710;7.180;2022-08-01T02:18:29;22.20;99.90
13251;DHT22;6692;50.710;7.180;2022-08-01T02:20:29;22.20;99.90
13251;DHT22;6692;50.710;7.180;2022-08-01T02:22:33;22.10;99.90
13251;DHT22;6692;50.710;7.180;2022-08-01T02:24:36;22.10;99.90
13251;DHT22;6692;50.710;7.180;2022-08-01T02:26:35;22.10;99.90
13251;DHT22;6692;50.710;7.180;2022-08-01T02:28:38;22.00;99.90
13251;DHT22;6692;50.710;7.180;2022-08-01T02:30:38;22.10;99.90
13251;DHT22;6692;50.710;7.180;2022-08-01T02:32:39;22.10;99.90
13251;DHT22;6692;50.710;7.180;2022-08-01T02:34:38;22.10;99.90
13251;DHT22;6692;50.710;7.180;2022-08-01T02:36:39;22.10;99.90
13251;DHT22;6692;50.710;7.180;2022-08-01T02:38:41;22.10;99.90
13251;DHT22;6692;50.710;7.180;2022-08-01T02:40:41;22.10;99.90
13251;DHT22;6692;50.710;7.180;2022-08-01T02:42:43;22.00;99.90
13251;DHT22;6692;50.710;7.180;2022-08-01T02:44:42;22.10;99.90
13251;DHT22;6692;50.710;7.180;2022-08-01T02:46:45;22.00;99.90
13251;DHT22;6692;50.710;7.180;2022-08-01T02:48:45;22.10;99.90
13251;DHT22;6692;50.710;7.180;2022-08-01T02:50:47;22.00;99.90
13251;DHT22;6692;50.710;7.180;2022-08-01T02:52:48;22.00;99.90
13251;DHT22;6692;50.710;7.180;2022-08-01T02:54:47;22.00;99.90
13251;DHT22;6692;50.710;7.180;2022-08-01T02:56:48;22.00;99.90
13251;DHT22;6692;50.710;7.180;2022-08-01T02:58:48;22.00;99.90
13251;DHT22;6692;50.710;7.180;2022-08-01T03:00:49;22.00;99.90
13251;DHT22;6692;50.710;7.180;2022-08-01T03:02:50;22.00;99.90
13251;DHT22;6692;50.710;7.180;2022-08-01T03:04:50;22.00;99.90
13251;DHT22;6692;50.710;7.180;2022-08-01T03:06:52;22.00;99.90
13251;DHT22;6692;50.710;7.180;2022-08-01T03:08:52;22.00;99.90
13251;DHT22;6692;50.710;7.180;2022-08-01T03:10:52;21.90;99.90
13251;DHT22;6692;50.710;7.180;2022-08-01T03:12:53;21.90;99.90
13251;DHT22;6692;50.710;7.180;2022-08-01T03:14:54;21.90;99.90
13251;DHT22;6692;50.710;7.180;2022-08-01T03:16:54;21.90;99.90
13251;DHT22;6692;50.710;7.180;2022-08-01T03:18:55;21.90;99.90
13251;DHT22;6692;50.710;7.180;2022-08-01T03:20:55;21.90;99.90
13251;DHT22;6692;50.710;7.180;2022-08-01T03:22:56;21.90;99.90
13251;DHT22;6692;50.710;7.180;2022-08-01T03:24:58;21.90;99.90
13251;DHT22;6692;50.710;7.180;2022-08-01T03:26:58;21.80;99.90
13251;DHT22;6692;50.710;7.180;2022-08-01T03:29:01;21.90;99.90
13251;DHT22;6692;50.710;7.180;2022-08-01T03:30:59;21.90;99.90
13251;DHT22;6692;50.710;7.180;2022-08-01T03:33:01;21.90;99.90
13251;DHT22;6692;50.710;7.180;2022-08-01T03:35:01;21.90;99.90
13251;DHT22;6692;50.710;7.180;2022-08-01T03:37:03;21.90;99.90
13251;DHT22;6692;50.710;7.180;2022-08-01T03:39:03;21.90;99.90
13251;DHT22;6692;50.710;7.180;2022-08-01T03:41:08;21.90;99.90
13251;DHT22;6692;50.710;7.180;2022-08-01T03:43:07;21.90;99.90
13251;DHT22;6692;50.710;7.180;2022-08-01T03:45:08;21.90;99.90
13251;DHT22;6692;50.710;7.180;2022-08-01T03:47:10;21.90;99.90
13251;DHT22;6692;50.710;7.180;2022-08-01T03:49:14;21.90;99.90
13251;DHT22;6692;50.710;7.180;2022-08-01T03:51:15;21.90;99.90
13251;DHT22;6692;50.710;7.180;2022-08-01T03:53:15;21.90;99.90
13251;DHT22;6692;50.710;7.180;2022-08-01T03:55:15;21.90;99.90
13251;DHT22;6692;50.710;7.180;2022-08-01T03:57:16;21.90;99.90
13251;DHT22;6692;50.710;7.180;2022-08-01T03:59:18;21.90;99.90
13251;DHT22;6692;50.710;7.180;2022-08-01T04:01:18;21.80;99.90
13251;DHT22;6692;50.710;7.180;2022-08-01T04:03:18;21.80;99.90
13251;DHT22;6692;50.710;7.180;2022-08-01T04:05:19;21.80;99.90
13251;DHT22;6692;50.710;7.180;2022-08-01T04:07:24;21.80;99.90
13251;DHT22;6692;50.710;7.180;2022-08-01T04:09:24;21.80;99.90
13251;DHT22;6692;50.710;7.180;2022-08-01T04:11:25;21.80;99.90
13251;DHT22;6692;50.710;7.180;2022-08-01T04:13:25;21.80;99.90
13251;DHT22;6692;50.710;7.180;2022-08-01T04:15:26;21.80;99.90
13251;DHT22;6692;50.710;7.180;2022-08-01T04:17:27;21.80;99.90
13251;DHT22;6692;50.710;7.180;2022-08-01T04:19:27;21.80;99.90
13251;DHT22;6692;50.710;7.180;2022-08-01T04:21:28;21.80;99.90
13251;DHT22;6692;50.710;7.180;2022-08-01T04:23:29;21.80;99.90
13251;DHT22;6692;50.710;7.180;2022-08-01T04:25:32;21.80;99.90
13251;DHT22;6692;50.710;7.180;2022-08-01T04:27:32;21.80;99.90
13251;DHT22;6692;50.710;7.180;2022-08-01T04:29:32;21.80;99.90
13251;DHT22;6692;50.710;7.180;2022-08-01T04:31:33;21.70;99.90
13251;DHT22;6692;50.710;7.180;2022-08-01T04:33:33;21.80;99.90
13251;DHT22;6692;50.710;7.180;2022-08-01T04:35:34;21.80;99.90
13251;DHT22;6692;50.710;7.180;2022-08-01T04:37:35;21.90;99.90
13251;DHT22;6692;50.710;7.180;2022-08-01T04:39:36;21.80;99.90
13251;DHT22;6692;50.710;7.180;2022-08-01T04:41:37;21.90;99.90
13251;DHT22;6692;50.710;7.180;2022-08-01T04:43:37;21.90;99.90
13251;DHT22;6692;50.710;7.180;2022-08-01T04:45:39;22.00;99.90
13251;DHT22;6692;50.710;7.180;2022-08-01T04:47:40;22.00;99.90
13251;DHT22;6692;50.710;7.180;2022-08-01T04:49:41;22.00;99.90
13251;DHT22;6692;50.710;7.180;2022-08-01T04:51:50;22.00;99.90
13251;DHT22;6692;50.710;7.180;2022-08-01T04:53:51;22.00;99.90
13251;DHT22;6692;50.710;7.180;2022-08-01T04:55:52;22.00;99.90
13251;DHT22;6692;50.710;7.180;2022-08-01T04:57:53;22.10;99.90
13251;DHT22;6692;50.710;7.180;2022-08-01T04:59:54;22.10;99.90
13251;DHT22;6692;50.710;7.180;2022-08-01T05:01:55;22.10;99.90
13251;DHT22;6692;50.710;7.180;2022-08-01T05:03:55;22.00;99.90
13251;DHT22;6692;50.710;7.180;2022-08-01T05:05:57;22.00;99.90
13251;DHT22;6692;50.710;7.180;2022-08-01T05:07:57;22.00;99.90
13251;DHT22;6692;50.710;7.180;2022-08-01T05:09:58;22.00;99.90
13251;DHT22;6692;50.710;7.180;2022-08-01T05:11:59;22.10;99.90
13251;DHT22;6692;50.710;7.180;2022-08-01T05:14:00;22.00;99.90
13251;DHT22;6692;50.710;7.180;2022-08-01T05:16:01;22.10;99.90
13251;DHT22;6692;50.710;7.180;2022-08-01T05:18:03;22.00;99.90
13251;DHT22;6692;50.710;7.180;2022-08-01T05:20:06;22.00;99.90
13251;DHT22;6692;50.710;7.180;2022-08-01T05:22:07;22.00;99.90
13251;DHT22;6692;50.710;7.180;2022-08-01T05:24:07;22.00;99.90
13251;DHT22;6692;50.710;7.180;2022-08-01T05:26:08;22.00;99.90
13251;DHT22;6692;50.710;7.180;2022-08-01T05:28:08;22.00;99.90
13251;DHT22;6692;50.710;7.180;2022-08-01T05:30:09;21.90;99.90
13251;DHT22;6692;50.710;7.180;2022-08-01T05:32:11;21.90;99.90
13251;DHT22;6692;50.710;7.180;2022-08-01T05:34:11;21.90;99.90
13251;DHT22;6692;50.710;7.180;2022-08-01T05:36:12;21.90;99.90
13251;DHT22;6692;50.710;7.180;2022-08-01T05:38:12;21.90;99.90
13251;DHT22;6692;50.710;7.180;2022-08-01T05:40:13;22.00;99.90
13251;DHT22;6692;50.710;7.180;2022-08-01T05:42:14;22.10;99.90
13251;DHT22;6692;50.710;7.180;2022-08-01T05:44:14;22.10;99.90
13251;DHT22;6692;50.710;7.180;2022-08-01T05:46:16;22.10;99.90
13251;DHT22;6692;50.710;7.180;2022-08-01T05:48:17;22.10;99.90
13251;DHT22;6692;50.710;7.180;2022-08-01T05:50:18;22.10;99.90
13251;DHT22;6692;50.710;7.180;2022-08-01T05:52:19;22.10;99.90
13251;DHT22;6692;50.710;7.180;2022-08-01T05:54:20;22.10;99.90
13251;DHT22;6692;50.710;7.180;2022-08-01T05:56:21;22.10;99.90
13251;DHT22;6692;50.710;7.180;2022-08-01T05:58:21;22.10;99.90
13251;DHT22;6692;50.710;7.180;2022-08-01T06:00:22;22.10;99.90
13251;DHT22;6692;50.710;7.180;2022-08-01T06:02:23;22.10;99.90
13251;DHT22;6692;50.710;7.180;2022-08-01T06:04:24;22.10;99.90
13251;DHT22;6692;50.710;7.180;2022-08-01T06:06:25;22.00;99.90
13251;DHT22;6692;50.710;7.180;2022-08-01T06:08:26;21.90;99.90
13251;DHT22;6692;50.710;7.180;2022-08-01T06:10:27;21.90;99.90
13251;DHT22;6692;50.710;7.180;2022-08-01T06:12:28;21.90;99.90
13251;DHT22;6692;50.710;7.180;2022-08-01T06:14:28;21.90;99.90
13251;DHT22;6692;50.710;7.180;2022-08-01T06:16:29;21.90;99.90
13251;DHT22;6692;50.710;7.180;2022-08-01T06:18:30;22.00;99.90
13251;DHT22;6692;50.710;7.180;2022-08-01T06:20:30;22.00;99.90
13251;DHT22;6692;50.710;7.180;2022-08-01T06:22:32;22.00;99.90
13251;DHT22;6692;50.710;7.180;2022-08-01T06:24:33;21.90;99.90
13251;DHT22;6692;50.710;7.180;2022-08-01T06:26:34;21.90;99.90
13251;DHT22;6692;50.710;7.180;2022-08-01T06:28:35;22.10;99.90
13251;DHT22;6692;50.710;7.180;2022-08-01T06:30:36;22.10;99.90
13251;DHT22;6692;50.710;7.180;2022-08-01T06:32:37;22.10;99.90
13251;DHT22;6692;50.710;7.180;2022-08-01T06:34:37;22.10;99.90
13251;DHT22;6692;50.710;7.180;2022-08-01T06:36:38;22.20;99.90
13251;DHT22;6692;50.710;7.180;2022-08-01T06:38:39;22.30;99.90
13251;DHT22;6692;50.710;7.180;2022-08-01T06:40:40;22.20;99.90
13251;DHT22;6692;50.710;7.180;2022-08-01T06:42:41;22.40;99.90
13251;DHT22;6692;50.710;7.180;2022-08-01T06:44:43;22.50;99.90
13251;DHT22;6692;50.710;7.180;2022-08-01T06:46:44;22.60;99.90
13251;DHT22;6692;50.710;7.180;2022-08-01T06:48:45;22.60;99.90
13251;DHT22;6692;50.710;7.180;2022-08-01T06:50:45;22.60;99.90
13251;DHT22;6692;50.710;7.180;2022-08-01T06:52:46;22.70;99.90
13251;DHT22;6692;50.710;7.180;2022-08-01T06:54:46;22.80;99.90
13251;DHT22;6692;50.710;7.180;2022-08-01T06:56:47;22.80;99.90
13251;DHT22;6692;50.710;7.180;2022-08-01T06:58:49;22.80;99.90
13251;DHT22;6692;50.710;7.180;2022-08-01T07:00:50;22.80;99.90
13251;DHT22;6692;50.710;7.180;2022-08-01T07:02:51;22.90;99.90
13251;DHT22;6692;50.710;7.180;2022-08-01T07:04:51;22.90;99.90
13251;DHT22;6692;50.710;7.180;2022-08-01T07:06:53;22.90;99.90
13251;DHT22;6692;50.710;7.180;2022-08-01T07:08:53;22.90;99.90
13251;DHT22;6692;50.710;7.180;2022-08-01T07:10:54;22.90;99.90
13251;DHT22;6692;50.710;7.180;2022-08-01T07:12:54;22.80;99.90
13251;DHT22;6692;50.710;7.180;2022-08-01T07:14:56;22.90;99.90
13251;DHT22;6692;50.710;7.180;2022-08-01T07:16:57;22.90;99.90
13251;DHT22;6692;50.710;7.180;2022-08-01T07:18:58;22.90;99.90
13251;DHT22;6692;50.710;7.180;2022-08-01T07:20:59;22.90;99.90
13251;DHT22;6692;50.710;7.180;2022-08-01T07:22:59;23.00;99.90
13251;DHT22;6692;50.710;7.180;2022-08-01T07:25:00;23.00;99.90
13251;DHT22;6692;50.710;7.180;2022-08-01T07:27:01;23.10;99.90
13251;DHT22;6692;50.710;7.180;2022-08-01T07:29:02;23.10;99.90
13251;DHT22;6692;50.710;7.180;2022-08-01T07:31:04;23.20;99.90
13251;DHT22;6692;50.710;7.180;2022-08-01T07:33:04;23.10;99.90
13251;DHT22;6692;50.710;7.180;2022-08-01T07:35:06;23.20;99.90
13251;DHT22;6692;50.710;7.180;2022-08-01T07:37:07;23.20;99.90
13251;DHT22;6692;50.710;7.180;2022-08-01T07:39:08;23.20;99.90
13251;DHT22;6692;50.710;7.180;2022-08-01T07:41:08;23.20;99.90
13251;DHT22;6692;50.710;7.180;2022-08-01T07:43:09;23.10;99.90
13251;DHT22;6692;50.710;7.180;2022-08-01T07:45:10;23.10;99.90
13251;DHT22;6692;50.710;7.180;2022-08-01T07:47:10;23.10;99.90
13251;DHT22;6692;50.710;7.180;2022-08-01T07:49:11;23.10;99.90
13251;DHT22;6692;50.710;7.180;2022-08-01T07:51:13;23.30;99.90
13251;DHT22;6692;50.710;7.180;2022-08-01T07:53:14;23.30;99.90
13251;DHT22;6692;50.710;7.180;2022-08-01T07:55:14;23.30;99.90
13251;DHT22;6692;50.710;7.180;2022-08-01T07:57:15;23.30;99.90
13251;DHT22;6692;50.710;7.180;2022-08-01T07:59:17;23.50;99.90
13251;DHT22;6692;50.710;7.180;2022-08-01T08:01:17;23.40;99.90
13251;DHT22;6692;50.710;7.180;2022-08-01T08:03:18;23.50;99.90
13251;DHT22;6692;50.710;7.180;2022-08-01T08:05:19;23.70;99.90
13251;DHT22;6692;50.710;7.180;2022-08-01T08:07:19;23.80;99.90
13251;DHT22;6692;50.710;7.180;2022-08-01T08:09:20;23.80;99.90
13251;DHT22;6692;50.710;7.180;2022-08-01T08:11:21;24.00;99.90
13251;DHT22;6692;50.710;7.180;2022-08-01T08:13:21;24.10;99.90
13251;DHT22;6692;50.710;7.180;2022-08-01T08:15:22;24.10;99.90
13251;DHT22;6692;50.710;7.180;2022-08-01T08:17:23;24.10;99.90
13251;DHT22;6692;50.710;7.180;2022-08-01T08:19:23;24.00;99.90
13251;DHT22;6692;50.710;7.180;2022-08-01T08:21:24;24.00;99.90
13251;DHT22;6692;50.710;7.180;2022-08-01T08:23:25;24.10;99.90
13251;DHT22;6692;50.710;7.180;2022-08-01T08:25:32;24.10;99.90
13251;DHT22;6692;50.710;7.180;2022-08-01T08:27:32;24.10;99.90
13251;DHT22;6692;50.710;7.180;2022-08-01T08:29:33;24.20;99.90
13251;DHT22;6692;50.710;7.180;2022-08-01T08:31:33;24.20;99.90
13251;DHT22;6692;50.710;7.180;2022-08-01T08:33:34;24.20;99.90
13251;DHT22;6692;50.710;7.180;2022-08-01T08:35:35;24.20;99.90
13251;DHT22;6692;50.710;7.180;2022-08-01T08:37:36;24.20;99.90
13251;DHT22;6692;50.710;7.180;2022-08-01T08:39:36;24.20;99.90
13251;DHT22;6692;50.710;7.180;2022-08-01T08:41:37;24.30;99.90
13251;DHT22;6692;50.710;7.180;2022-08-01T08:43:37;24.30;99.90
13251;DHT22;6692;50.710;7.180;2022-08-01T08:45:38;24.20;99.90
13251;DHT22;6692;50.710;7.180;2022-08-01T08:47:39;24.20;99.90
13251;DHT22;6692;50.710;7.180;2022-08-01T08:49:40;24.20;99.90
13251;DHT22;6692;50.710;7.180;2022-08-01T08:51:41;24.10;99.90
13251;DHT22;6692;50.710;7.180;2022-08-01T08:53:41;24.20;99.90
13251;DHT22;6692;50.710;7.180;2022-08-01T08:55:43;24.20;99.90
13251;DHT22;6692;50.710;7.180;2022-08-01T08:57:44;24.30;99.90
13251;DHT22;6692;50.710;7.180;2022-08-01T08:59:45;24.30;99.90
13251;DHT22;6692;50.710;7.180;2022-08-01T09:01:46;24.20;99.90
13251;DHT22;6692;50.710;7.180;2022-08-01T09:03:47;24.20;99.90
13251;DHT22;6692;50.710;7.180;2022-08-01T09:05:49;24.20;99.90
13251;DHT22;6692;50.710;7.180;2022-08-01T09:07:49;24.20;99.90
13251;DHT22;6692;50.710;7.180;2022-08-01T09:09:50;24.20;99.90
13251;DHT22;6692;50.710;7.180;2022-08-01T09:11:51;24.10;99.90
13251;DHT22;6692;50.710;7.180;2022-08-01T09:14:02;24.10;99.90
13251;DHT22;6692;50.710;7.180;2022-08-01T09:16:01;24.10;99.90
13251;DHT22;6692;50.710;7.180;2022-08-01T09:18:03;24.20;99.90
13251;DHT22;6692;50.710;7.180;2022-08-01T09:20:04;24.20;99.90
13251;DHT22;6692;50.710;7.180;2022-08-01T09:22:06;24.20;99.90
13251;DHT22;6692;50.710;7.180;2022-08-01T09:24:13;24.30;99.90
13251;DHT22;6692;50.710;7.180;2022-08-01T09:26:13;24.40;99.90
13251;DHT22;6692;50.710;7.180;2022-08-01T09:28:14;24.50;99.90
13251;DHT22;6692;50.710;7.180;2022-08-01T09:30:16;24.50;99.90
13251;DHT22;6692;50.710;7.180;2022-08-01T09:32:16;24.70;99.90
13251;DHT22;6692;50.710;7.180;2022-08-01T09:34:24;24.80;99.90
13251;DHT22;6692;50.710;7.180;2022-08-01T09:36:25;24.70;99.90
13251;DHT22;6692;50.710;7.180;2022-08-01T09:38:26;25.00;99.90
13251;DHT22;6692;50.710;7.180;2022-08-01T09:40:39;25.00;99.90
13251;DHT22;6692;50.710;7.180;2022-08-01T09:42:27;25.10;99.90
13251;DHT22;6692;50.710;7.180;2022-08-01T09:46:35;25.20;99.90
13251;DHT22;6692;50.710;7.180;2022-08-01T09:48:36;25.20;99.90
13251;DHT22;6692;50.710;7.180;2022-08-01T09:50:39;25.10;95.40
13251;DHT22;6692;50.710;7.180;2022-08-01T09:52:39;25.10;95.60
13251;DHT22;6692;50.710;7.180;2022-08-01T09:54:41;25.10;95.50
13251;DHT22;6692;50.710;7.180;2022-08-01T09:56:41;25.10;95.40
13251;DHT22;6692;50.710;7.180;2022-08-01T09:58:49;25.20;99.90
13251;DHT22;6692;50.710;7.180;2022-08-01T10:00:59;25.30;99.90
13251;DHT22;6692;50.710;7.180;2022-08-01T10:05:11;25.20;99.90
13251;DHT22;6692;50.710;7.180;2022-08-01T10:07:12;25.30;99.90
13251;DHT22;6692;50.710;7.180;2022-08-01T10:09:13;25.30;99.90
13251;DHT22;6692;50.710;7.180;2022-08-01T10:11:13;25.40;99.90
13251;DHT22;6692;50.710;7.180;2022-08-01T10:13:14;25.30;99.90
13251;DHT22;6692;50.710;7.180;2022-08-01T10:15:14;25.40;99.90
13251;DHT22;6692;50.710;7.180;2022-08-01T10:17:17;25.40;99.90
13251;DHT22;6692;50.710;7.180;2022-08-01T10:19:15;25.50;99.90
13251;DHT22;6692;50.710;7.180;2022-08-01T10:21:17;25.50;99.90
13251;DHT22;6692;50.710;7.180;2022-08-01T10:23:17;25.50;99.90
13251;DHT22;6692;50.710;7.180;2022-08-01T10:25:18;25.50;99.90
13251;DHT22;6692;50.710;7.180;2022-08-01T10:27:19;25.50;99.90
13251;DHT22;6692;50.710;7.180;2022-08-01T10:29:20;25.50;99.90
13251;DHT22;6692;50.710;7.180;2022-08-01T10:31:20;25.40;99.90
13251;DHT22;6692;50.710;7.180;2022-08-01T10:33:22;25.40;99.90
13251;DHT22;6692;50.710;7.180;2022-08-01T10:35:22;25.40;99.90
13251;DHT22;6692;50.710;7.180;2022-08-01T10:37:23;25.50;99.90
13251;DHT22;6692;50.710;7.180;2022-08-01T10:39:23;25.50;99.90
13251;DHT22;6692;50.710;7.180;2022-08-01T10:41:25;25.80;99.90
13251;DHT22;6692;50.710;7.180;2022-08-01T10:43:25;25.80;99.90
13251;DHT22;6692;50.710;7.180;2022-08-01T10:45:26;25.80;99.90
13251;DHT22;6692;50.710;7.180;2022-08-01T10:47:31;25.90;99.90
13251;DHT22;6692;50.710;7.180;2022-08-01T10:49:29;26.00;99.90
13251;DHT22;6692;50.710;7.180;2022-08-01T10:51:29;26.10;99.90
13251;DHT22;6692;50.710;7.180;2022-08-01T10:53:31;26.20;99.90
13251;DHT22;6692;50.710;7.180;2022-08-01T10:55:49;26.20;99.90
13251;DHT22;6692;50.710;7.180;2022-08-01T10:57:49;26.20;99.90
13251;DHT22;6692;50.710;7.180;2022-08-01T10:59:50;26.20;99.90
13251;DHT22;6692;50.710;7.180;2022-08-01T11:02:04;26.20;99.90
13251;DHT22;6692;50.710;7.180;2022-08-01T11:04:08;26.10;99.90
13251;DHT22;6692;50.710;7.180;2022-08-01T11:06:16;25.80;99.90
13251;DHT22;6692;50.710;7.180;2022-08-01T11:08:20;25.70;99.90
13251;DHT22;6692;50.710;7.180;2022-08-01T11:10:24;25.60;99.90
13251;DHT22;6692;50.710;7.180;2022-08-01T11:12:22;25.50;99.90
13251;DHT22;6692;50.710;7.180;2022-08-01T11:14:23;25.50;99.90
13251;DHT22;6692;50.710;7.180;2022-08-01T11:16:25;25.40;99.90
13251;DHT22;6692;50.710;7.180;2022-08-01T11:18:30;25.30;99.90
13251;DHT22;6692;50.710;7.180;2022-08-01T11:20:32;25.20;99.90
13251;DHT22;6692;50.710;7.180;2022-08-01T11:22:32;25.20;99.90
13251;DHT22;6692;50.710;7.180;2022-08-01T11:27:15;25.40;99.90
13251;DHT22;6692;50.710;7.180;2022-08-01T11:29:11;25.50;99.90
13251;DHT22;6692;50.710;7.180;2022-08-01T11:30:48;25.60;99.90
13251;DHT22;6692;50.710;7.180;2022-08-01T11:32:50;25.70;99.90
13251;DHT22;6692;50.710;7.180;2022-08-01T11:34:52;25.90;99.90
13251;DHT22;6692;50.710;7.180;2022-08-01T11:37:12;25.90;99.90
13251;DHT22;6692;50.710;7.180;2022-08-01T11:39:12;26.00;99.90
13251;DHT22;6692;50.710;7.180;2022-08-01T11:41:26;26.40;99.90
13251;DHT22;6692;50.710;7.180;2022-08-01T11:43:26;26.40;99.90
13251;DHT22;6692;50.710;7.180;2022-08-01T11:45:46;26.50;99.90
13251;DHT22;6692;50.710;7.180;2022-08-01T11:47:42;26.50;99.90
13251;DHT22;6692;50.710;7.180;2022-08-01T11:49:44;26.60;99.90
13251;DHT22;6692;50.710;7.180;2022-08-01T11:51:44;26.70;99.90
13251;DHT22;6692;50.710;7.180;2022-08-01T11:53:45;26.60;99.90
13251;DHT22;6692;50.710;7.180;2022-08-01T11:55:46;26.60;99.90
13251;DHT22;6692;50.710;7.180;2022-08-01T11:57:47;26.50;99.90
13251;DHT22;6692;50.710;7.180;2022-08-01T11:59:53;26.50;99.90
13251;DHT22;6692;50.710;7.180;2022-08-01T12:01:53;26.50;99.90
13251;DHT22;6692;50.710;7.180;2022-08-01T12:03:55;26.40;99.90
13251;DHT22;6692;50.710;7.180;2022-08-01T12:05:55;26.40;99.90
13251;DHT22;6692;50.710;7.180;2022-08-01T12:07:56;26.50;99.90
13251;DHT22;6692;50.710;7.180;2022-08-01T12:10:00;26.50;99.90
13251;DHT22;6692;50.710;7.180;2022-08-01T12:11:59;26.50;99.90
13251;DHT22;6692;50.710;7.180;2022-08-01T12:14:00;26.50;99.90
13251;DHT22;6692;50.710;7.180;2022-08-01T12:16:06;26.40;99.90
13251;DHT22;6692;50.710;7.180;2022-08-01T12:18:04;26.20;99.90
13251;DHT22;6692;50.710;7.180;2022-08-01T12:20:07;26.10;99.90
13251;DHT22;6692;50.710;7.180;2022-08-01T12:22:09;25.80;99.90
13251;DHT22;6692;50.710;7.180;2022-08-01T12:24:09;25.60;99.90
13251;DHT22;6692;50.710;7.180;2022-08-01T12:26:09;25.30;99.90
13251;DHT22;6692;50.710;7.180;2022-08-01T12:28:10;25.20;99.90
13251;DHT22;6692;50.710;7.180;2022-08-01T12:30:13;24.40;99.90
13251;DHT22;6692;50.710;7.180;2022-08-01T12:32:20;24.40;99.90
13251;DHT22;6692;50.710;7.180;2022-08-01T12:34:25;24.00;99.90
13251;DHT22;6692;50.710;7.180;2022-08-01T12:36:27;23.90;99.90
13251;DHT22;6692;50.710;7.180;2022-08-01T12:38:27;24.00;99.90
13251;DHT22;6692;50.710;7.180;2022-08-01T12:40:31;24.00;99.90
13251;DHT22;6692;50.710;7.180;2022-08-01T12:42:31;24.20;99.90
13251;DHT22;6692;50.710;7.180;2022-08-01T12:44:32;24.30;99.90
13251;DHT22;6692;50.710;7.180;2022-08-01T12:46:32;24.40;99.90
13251;DHT22;6692;50.710;7.180;2022-08-01T12:48:33;24.50;99.90
13251;DHT22;6692;50.710;7.180;2022-08-01T12:50:33;24.70;99.90
13251;DHT22;6692;50.710;7.180;2022-08-01T12:52:35;25.10;99.90
13251;DHT22;6692;50.710;7.180;2022-08-01T12:56:48;25.30;99.90
13251;DHT22;6692;50.710;7.180;2022-08-01T12:58:49;25.40;99.90
13251;DHT22;6692;50.710;7.180;2022-08-01T13:00:50;25.50;99.90
13251;DHT22;6692;50.710;7.180;2022-08-01T13:02:59;25.40;99.90
13251;DHT22;6692;50.710;7.180;2022-08-01T13:04:52;25.50;99.90
13251;DHT22;6692;50.710;7.180;2022-08-01T13:06:53;25.40;99.90
13251;DHT22;6692;50.710;7.180;2022-08-01T13:08:54;25.70;99.90